DAAT/TMR METAR and TAF weather

Enter ICAO airport designator
Station Type Date Time Source
DAAT METAR 2018/01/19 17:30 UTC NOAA

DAAT 191730Z 22009KT CAVOK 20/// Q1020


Station Type Date Time Source
DAAT Decoded METAR 2018/01/19 17:30 UTC NOAA

Tamanrasset / Aguenna, Algeria (DAAT) 22-49N 005-28E
Jan 19, 2018 - 12:30 PM EST / 2018.01.19 1730 UTC
Wind: from the SW (220 degrees) at 10 MPH (9 KT):0
Visibility: greater than 7 mile(s):0
Temperature: 68 F (20 C)
Pressure (altimeter): 30.12 in. Hg (1020 hPa)
ob: DAAT 191730Z 22009KT CAVOK 20/// Q1020
cycle: 17

Station Type Date Time Source
DAAT TAF 2018/01/19 18:33 UTC NOAA

TAF DAAT 191700Z 1918/2018 20008KT CAVOK
BECMG 2009/2012 30010KT


Example: see airport list